sensor_id;sensor_type;location;lat;lon;timestamp;pressure;altitude;pressure_sealevel;temperature;humidity
40788;BME280;26497;52.494;7.546;2023-04-01T00:02:13;98618.22;;;14.40;78.56
40788;BME280;26497;52.494;7.546;2023-04-01T00:04:40;98616.78;;;14.33;78.48
40788;BME280;26497;52.494;7.546;2023-04-01T00:07:07;98612.28;;;14.35;78.61
40788;BME280;26497;52.494;7.546;2023-04-01T00:09:35;98617.88;;;14.29;78.94
40788;BME280;26497;52.494;7.546;2023-04-01T00:12:03;98611.09;;;14.23;79.22
40788;BME280;26497;52.494;7.546;2023-04-01T00:14:30;98618.44;;;14.36;78.72
40788;BME280;26497;52.494;7.546;2023-04-01T00:16:57;98616.28;;;14.44;78.22
40788;BME280;26497;52.494;7.546;2023-04-01T00:19:24;98619.72;;;14.46;77.69
40788;BME280;26497;52.494;7.546;2023-04-01T00:21:51;98615.84;;;14.53;77.82
40788;BME280;26497;52.494;7.546;2023-04-01T00:24:19;98614.63;;;14.41;77.86
40788;BME280;26497;52.494;7.546;2023-04-01T00:26:47;98614.00;;;14.36;78.61
40788;BME280;26497;52.494;7.546;2023-04-01T00:29:14;98616.72;;;14.35;78.80
40788;BME280;26497;52.494;7.546;2023-04-01T00:31:41;98610.03;;;14.45;78.40
40788;BME280;26497;52.494;7.546;2023-04-01T00:34:08;98612.34;;;14.34;78.26
40788;BME280;26497;52.494;7.546;2023-04-01T00:36:35;98606.19;;;14.33;78.77
40788;BME280;26497;52.494;7.546;2023-04-01T00:39:02;98606.91;;;14.37;78.44
40788;BME280;26497;52.494;7.546;2023-04-01T00:41:29;98612.03;;;14.22;79.36
40788;BME280;26497;52.494;7.546;2023-04-01T00:46:50;98610.19;;;14.59;77.21
40788;BME280;26497;52.494;7.546;2023-04-01T00:49:20;98610.38;;;14.56;77.48
40788;BME280;26497;52.494;7.546;2023-04-01T00:51:51;98603.81;;;14.46;77.40
40788;BME280;26497;52.494;7.546;2023-04-01T00:54:19;98606.22;;;14.51;77.66
40788;BME280;26497;52.494;7.546;2023-04-01T00:56:50;98603.88;;;14.62;77.24
40788;BME280;26497;52.494;7.546;2023-04-01T00:59:24;98597.66;;;14.63;76.80
40788;BME280;26497;52.494;7.546;2023-04-01T01:01:53;98601.25;;;14.62;76.81
40788;BME280;26497;52.494;7.546;2023-04-01T01:04:26;98599.50;;;14.43;77.44
40788;BME280;26497;52.494;7.546;2023-04-01T01:07:07;98609.34;;;14.59;77.17
40788;BME280;26497;52.494;7.546;2023-04-01T01:09:45;98600.22;;;14.65;76.96
40788;BME280;26497;52.494;7.546;2023-04-01T01:12:19;98601.53;;;14.56;77.08
40788;BME280;26497;52.494;7.546;2023-04-01T01:14:55;98601.59;;;14.73;76.64
40788;BME280;26497;52.494;7.546;2023-04-01T01:17:35;98599.22;;;14.67;76.50
40788;BME280;26497;52.494;7.546;2023-04-01T01:20:57;98603.09;;;14.60;77.11
40788;BME280;26497;52.494;7.546;2023-04-01T01:24:08;98594.16;;;14.26;78.65
40788;BME280;26497;52.494;7.546;2023-04-01T01:26:55;98599.81;;;14.55;77.50
40788;BME280;26497;52.494;7.546;2023-04-01T01:30:14;98599.38;;;14.64;76.84
40788;BME280;26497;52.494;7.546;2023-04-01T01:33:06;98596.47;;;14.51;77.34
40788;BME280;26497;52.494;7.546;2023-04-01T01:35:41;98595.06;;;14.44;77.71
40788;BME280;26497;52.494;7.546;2023-04-01T01:38:17;98602.56;;;14.53;77.24
40788;BME280;26497;52.494;7.546;2023-04-01T01:40:49;98602.72;;;14.50;77.37
40788;BME280;26497;52.494;7.546;2023-04-01T01:43:24;98600.38;;;14.62;76.64
40788;BME280;26497;52.494;7.546;2023-04-01T01:45:55;98602.78;;;14.49;76.92
40788;BME280;26497;52.494;7.546;2023-04-01T01:48:25;98598.25;;;14.51;76.69
40788;BME280;26497;52.494;7.546;2023-04-01T01:50:55;98598.72;;;14.41;77.64
40788;BME280;26497;52.494;7.546;2023-04-01T01:53:22;98602.28;;;14.40;77.30
40788;BME280;26497;52.494;7.546;2023-04-01T01:55:49;98597.31;;;14.52;77.00
40788;BME280;26497;52.494;7.546;2023-04-01T01:58:25;98593.97;;;14.66;76.36
40788;BME280;26497;52.494;7.546;2023-04-01T02:00:57;98595.44;;;14.54;76.86
40788;BME280;26497;52.494;7.546;2023-04-01T02:03:27;98594.63;;;14.53;76.58
40788;BME280;26497;52.494;7.546;2023-04-01T02:06:00;98589.81;;;14.42;77.25
40788;BME280;26497;52.494;7.546;2023-04-01T02:08:31;98595.44;;;14.54;76.50
40788;BME280;26497;52.494;7.546;2023-04-01T02:11:03;98593.97;;;14.48;76.84
40788;BME280;26497;52.494;7.546;2023-04-01T02:13:37;98595.84;;;14.64;76.13
40788;BME280;26497;52.494;7.546;2023-04-01T02:16:11;98593.19;;;14.64;76.02
40788;BME280;26497;52.494;7.546;2023-04-01T02:18:41;98599.66;;;14.40;76.97
40788;BME280;26497;52.494;7.546;2023-04-01T02:21:12;98596.53;;;14.50;76.89
40788;BME280;26497;52.494;7.546;2023-04-01T02:23:40;98596.44;;;14.70;76.00
40788;BME280;26497;52.494;7.546;2023-04-01T02:26:09;98603.31;;;14.74;75.70
40788;BME280;26497;52.494;7.546;2023-04-01T02:28:39;98603.66;;;14.67;75.88
40788;BME280;26497;52.494;7.546;2023-04-01T02:31:09;98591.13;;;14.70;75.99
40788;BME280;26497;52.494;7.546;2023-04-01T02:33:38;98593.94;;;14.85;75.27
40788;BME280;26497;52.494;7.546;2023-04-01T02:36:07;98588.78;;;14.99;74.39
40788;BME280;26497;52.494;7.546;2023-04-01T02:38:39;98602.69;;;15.04;74.24
40788;BME280;26497;52.494;7.546;2023-04-01T02:41:07;98591.28;;;15.02;73.99
40788;BME280;26497;52.494;7.546;2023-04-01T02:43:34;98594.47;;;14.92;74.38
40788;BME280;26497;52.494;7.546;2023-04-01T02:46:01;98599.41;;;14.99;74.07
40788;BME280;26497;52.494;7.546;2023-04-01T02:48:28;98597.69;;;14.98;74.16
40788;BME280;26497;52.494;7.546;2023-04-01T02:50:55;98589.41;;;15.04;74.06
40788;BME280;26497;52.494;7.546;2023-04-01T02:53:22;98589.41;;;15.04;73.89
40788;BME280;26497;52.494;7.546;2023-04-01T02:55:51;98598.53;;;14.81;74.69
40788;BME280;26497;52.494;7.546;2023-04-01T02:58:18;98602.69;;;14.87;74.56
40788;BME280;26497;52.494;7.546;2023-04-01T03:00:45;98597.91;;;14.94;74.34
40788;BME280;26497;52.494;7.546;2023-04-01T03:03:12;98595.66;;;14.86;74.59
40788;BME280;26497;52.494;7.546;2023-04-01T03:05:40;98605.03;;;14.76;75.21
40788;BME280;26497;52.494;7.546;2023-04-01T03:08:07;98602.44;;;14.92;74.54
40788;BME280;26497;52.494;7.546;2023-04-01T03:10:34;98595.50;;;14.89;74.66
40788;BME280;26497;52.494;7.546;2023-04-01T03:13:08;98592.06;;;14.87;74.73
40788;BME280;26497;52.494;7.546;2023-04-01T03:15:35;98602.28;;;14.77;74.82
40788;BME280;26497;52.494;7.546;2023-04-01T03:18:02;98602.16;;;14.61;75.79
40788;BME280;26497;52.494;7.546;2023-04-01T03:20:30;98602.53;;;14.72;75.53
40788;BME280;26497;52.494;7.546;2023-04-01T03:22:57;98600.75;;;14.54;76.07
40788;BME280;26497;52.494;7.546;2023-04-01T03:25:24;98605.56;;;14.82;75.43
40788;BME280;26497;52.494;7.546;2023-04-01T03:27:52;98602.13;;;14.98;74.73
40788;BME280;26497;52.494;7.546;2023-04-01T03:30:20;98601.81;;;14.86;74.88
40788;BME280;26497;52.494;7.546;2023-04-01T03:32:47;98602.84;;;14.84;74.97
40788;BME280;26497;52.494;7.546;2023-04-01T03:35:15;98608.31;;;14.81;75.12
40788;BME280;26497;52.494;7.546;2023-04-01T03:37:42;98609.09;;;14.83;74.94
40788;BME280;26497;52.494;7.546;2023-04-01T03:40:10;98606.28;;;14.86;74.75
40788;BME280;26497;52.494;7.546;2023-04-01T03:42:37;98606.13;;;14.71;75.43
40788;BME280;26497;52.494;7.546;2023-04-01T03:45:06;98615.03;;;14.69;75.51
40788;BME280;26497;52.494;7.546;2023-04-01T03:47:34;98614.75;;;14.75;75.40
40788;BME280;26497;52.494;7.546;2023-04-01T03:50:01;98610.47;;;14.72;75.51
40788;BME280;26497;52.494;7.546;2023-04-01T03:52:28;98614.56;;;14.60;75.76
40788;BME280;26497;52.494;7.546;2023-04-01T03:54:55;98619.03;;;14.60;76.50
40788;BME280;26497;52.494;7.546;2023-04-01T03:57:23;98623.16;;;14.66;75.66
40788;BME280;26497;52.494;7.546;2023-04-01T03:59:50;98627.38;;;14.52;76.01
40788;BME280;26497;52.494;7.546;2023-04-01T04:02:17;98625.16;;;14.43;76.88
40788;BME280;26497;52.494;7.546;2023-04-01T04:04:46;98627.28;;;14.54;76.70
40788;BME280;26497;52.494;7.546;2023-04-01T04:07:13;98624.81;;;14.68;76.07
40788;BME280;26497;52.494;7.546;2023-04-01T04:09:40;98623.44;;;14.79;75.59
40788;BME280;26497;52.494;7.546;2023-04-01T04:12:07;98626.16;;;14.95;74.85
40788;BME280;26497;52.494;7.546;2023-04-01T04:14:34;98622.81;;;14.91;74.85
40788;BME280;26497;52.494;7.546;2023-04-01T04:17:01;98637.97;;;14.89;74.92
40788;BME280;26497;52.494;7.546;2023-04-01T04:19:32;98628.47;;;14.48;76.67
40788;BME280;26497;52.494;7.546;2023-04-01T04:22:01;98637.97;;;14.52;76.57
40788;BME280;26497;52.494;7.546;2023-04-01T04:24:28;98629.34;;;14.66;75.86
40788;BME280;26497;52.494;7.546;2023-04-01T04:26:55;98639.38;;;14.79;75.66
40788;BME280;26497;52.494;7.546;2023-04-01T04:29:23;98639.06;;;14.85;75.16
40788;BME280;26497;52.494;7.546;2023-04-01T04:31:50;98635.06;;;14.76;75.44
40788;BME280;26497;52.494;7.546;2023-04-01T04:34:17;98636.78;;;14.77;75.33
40788;BME280;26497;52.494;7.546;2023-04-01T04:36:45;98633.28;;;14.77;75.46
40788;BME280;26497;52.494;7.546;2023-04-01T04:39:14;98642.09;;;14.77;75.58
40788;BME280;26497;52.494;7.546;2023-04-01T04:41:41;98641.47;;;14.53;76.13
40788;BME280;26497;52.494;7.546;2023-04-01T04:44:08;98641.63;;;14.50;76.47
40788;BME280;26497;52.494;7.546;2023-04-01T04:46:35;98644.28;;;14.50;77.02
40788;BME280;26497;52.494;7.546;2023-04-01T04:49:04;98650.69;;;14.63;76.24
40788;BME280;26497;52.494;7.546;2023-04-01T04:51:32;98651.22;;;14.71;76.01
40788;BME280;26497;52.494;7.546;2023-04-01T04:54:01;98654.34;;;14.80;75.56
40788;BME280;26497;52.494;7.546;2023-04-01T04:56:30;98656.38;;;14.74;75.62
40788;BME280;26497;52.494;7.546;2023-04-01T04:58:57;98660.81;;;14.74;75.71
40788;BME280;26497;52.494;7.546;2023-04-01T05:01:25;98658.25;;;14.72;75.47
40788;BME280;26497;52.494;7.546;2023-04-01T05:03:52;98669.25;;;14.82;75.53
40788;BME280;26497;52.494;7.546;2023-04-01T05:06:20;98663.25;;;14.96;74.89
40788;BME280;26497;52.494;7.546;2023-04-01T05:08:47;98665.13;;;15.12;74.17
40788;BME280;26497;52.494;7.546;2023-04-01T05:11:17;98672.94;;;14.97;74.76
40788;BME280;26497;52.494;7.546;2023-04-01T05:13:46;98667.38;;;14.84;75.09
40788;BME280;26497;52.494;7.546;2023-04-01T05:16:15;98666.53;;;15.01;74.73
40788;BME280;26497;52.494;7.546;2023-04-01T05:18:43;98673.31;;;15.25;73.93
40788;BME280;26497;52.494;7.546;2023-04-01T05:21:11;98669.78;;;15.24;73.97
40788;BME280;26497;52.494;7.546;2023-04-01T05:23:39;98670.88;;;15.38;73.50
40788;BME280;26497;52.494;7.546;2023-04-01T05:26:08;98680.81;;;15.34;73.60
40788;BME280;26497;52.494;7.546;2023-04-01T05:28:36;98678.94;;;15.36;73.59
40788;BME280;26497;52.494;7.546;2023-04-01T05:31:06;98682.38;;;15.38;73.54
40788;BME280;26497;52.494;7.546;2023-04-01T05:33:33;98680.09;;;15.30;73.61
40788;BME280;26497;52.494;7.546;2023-04-01T05:36:07;98687.13;;;15.31;73.97
40788;BME280;26497;52.494;7.546;2023-04-01T05:38:34;98686.66;;;15.41;73.68
40788;BME280;26497;52.494;7.546;2023-04-01T05:41:02;98687.84;;;15.53;73.22
40788;BME280;26497;52.494;7.546;2023-04-01T05:43:29;98687.28;;;15.46;73.42
40788;BME280;26497;52.494;7.546;2023-04-01T05:45:56;98685.25;;;15.51;73.30
40788;BME280;26497;52.494;7.546;2023-04-01T05:48:24;98694.44;;;15.61;73.00
40788;BME280;26497;52.494;7.546;2023-04-01T05:50:52;98699.75;;;15.61;72.94
40788;BME280;26497;52.494;7.546;2023-04-01T05:53:20;98700.63;;;15.62;72.75
40788;BME280;26497;52.494;7.546;2023-04-01T05:55:47;98704.59;;;15.71;72.54
40788;BME280;26497;52.494;7.546;2023-04-01T05:58:14;98695.50;;;15.75;72.47
40788;BME280;26497;52.494;7.546;2023-04-01T06:00:41;98698.94;;;15.77;72.25
40788;BME280;26497;52.494;7.546;2023-04-01T06:03:09;98704.69;;;15.69;72.52
40788;BME280;26497;52.494;7.546;2023-04-01T06:05:41;98703.31;;;15.78;72.37
40788;BME280;26497;52.494;7.546;2023-04-01T06:08:12;98713.72;;;15.83;71.75
40788;BME280;26497;52.494;7.546;2023-04-01T06:10:53;98702.72;;;15.73;72.08
40788;BME280;26497;52.494;7.546;2023-04-01T06:13:37;98709.06;;;15.70;72.16
40788;BME280;26497;52.494;7.546;2023-04-01T06:16:12;98717.09;;;15.69;72.19
40788;BME280;26497;52.494;7.546;2023-04-01T06:18:56;98723.50;;;15.65;71.99
40788;BME280;26497;52.494;7.546;2023-04-01T06:21:47;98729.75;;;15.63;72.47
40788;BME280;26497;52.494;7.546;2023-04-01T06:24:34;98723.34;;;15.68;72.34
40788;BME280;26497;52.494;7.546;2023-04-01T06:27:19;98733.78;;;15.55;73.03
40788;BME280;26497;52.494;7.546;2023-04-01T06:30:06;98735.56;;;15.54;72.85
40788;BME280;26497;52.494;7.546;2023-04-01T06:33:07;98729.75;;;15.63;72.94
40788;BME280;26497;52.494;7.546;2023-04-01T06:36:09;98736.47;;;15.71;72.76
40788;BME280;26497;52.494;7.546;2023-04-01T06:38:52;98739.91;;;15.73;72.69
40788;BME280;26497;52.494;7.546;2023-04-01T06:41:55;98737.19;;;15.74;72.86
40788;BME280;26497;52.494;7.546;2023-04-01T06:44:35;98745.69;;;15.81;72.58
40788;BME280;26497;52.494;7.546;2023-04-01T06:47:19;98754.56;;;15.64;72.87
40788;BME280;26497;52.494;7.546;2023-04-01T06:49:59;98748.28;;;15.65;73.28
40788;BME280;26497;52.494;7.546;2023-04-01T06:52:40;98753.69;;;15.63;73.49
40788;BME280;26497;52.494;7.546;2023-04-01T06:55:27;98752.25;;;15.74;73.23
40788;BME280;26497;52.494;7.546;2023-04-01T06:58:00;98758.50;;;15.73;72.97
40788;BME280;26497;52.494;7.546;2023-04-01T07:00:32;98756.94;;;15.69;73.31
40788;BME280;26497;52.494;7.546;2023-04-01T07:03:08;98758.81;;;15.84;73.21
40788;BME280;26497;52.494;7.546;2023-04-01T07:05:37;98759.31;;;15.92;72.82
40788;BME280;26497;52.494;7.546;2023-04-01T07:08:09;98764.13;;;16.02;72.88
40788;BME280;26497;52.494;7.546;2023-04-01T07:10:46;98769.91;;;16.10;72.69
40788;BME280;26497;52.494;7.546;2023-04-01T07:13:20;98768.19;;;16.09;72.73
40788;BME280;26497;52.494;7.546;2023-04-01T07:15:58;98772.72;;;16.07;72.64
40788;BME280;26497;52.494;7.546;2023-04-01T07:18:33;98764.19;;;16.00;73.19
40788;BME280;26497;52.494;7.546;2023-04-01T07:21:02;98782.25;;;16.11;73.11
40788;BME280;26497;52.494;7.546;2023-04-01T07:23:36;98783.31;;;16.25;72.61
40788;BME280;26497;52.494;7.546;2023-04-01T07:26:15;98784.72;;;16.32;72.57
40788;BME280;26497;52.494;7.546;2023-04-01T07:28:43;98783.44;;;16.39;72.43
40788;BME280;26497;52.494;7.546;2023-04-01T07:31:20;98795.78;;;16.40;72.31
40788;BME280;26497;52.494;7.546;2023-04-01T07:34:01;98794.19;;;16.20;71.94
40788;BME280;26497;52.494;7.546;2023-04-01T07:36:36;98801.31;;;16.19;72.47
40788;BME280;26497;52.494;7.546;2023-04-01T07:39:19;98804.38;;;16.12;72.33
40788;BME280;26497;52.494;7.546;2023-04-01T07:41:55;98808.13;;;16.07;72.82
40788;BME280;26497;52.494;7.546;2023-04-01T07:44:34;98807.00;;;15.96;72.59
40788;BME280;26497;52.494;7.546;2023-04-01T07:47:18;98809.31;;;15.67;73.55
40788;BME280;26497;52.494;7.546;2023-04-01T07:50:00;98811.44;;;15.77;73.78
40788;BME280;26497;52.494;7.546;2023-04-01T07:52:35;98819.72;;;15.71;73.86
40788;BME280;26497;52.494;7.546;2023-04-01T07:55:11;98815.66;;;15.64;74.20
40788;BME280;26497;52.494;7.546;2023-04-01T07:57:48;98828.38;;;15.57;74.19
40788;BME280;26497;52.494;7.546;2023-04-01T08:00:20;98822.38;;;15.54;74.61
40788;BME280;26497;52.494;7.546;2023-04-01T08:03:08;98824.56;;;15.63;74.68
40788;BME280;26497;52.494;7.546;2023-04-01T08:05:49;98828.94;;;15.64;74.57
40788;BME280;26497;52.494;7.546;2023-04-01T08:08:30;98836.50;;;15.72;73.78
40788;BME280;26497;52.494;7.546;2023-04-01T08:11:09;98846.06;;;15.76;74.24
40788;BME280;26497;52.494;7.546;2023-04-01T08:13:47;98844.44;;;15.91;74.21
40788;BME280;26497;52.494;7.546;2023-04-01T08:16:23;98853.25;;;16.09;73.76
40788;BME280;26497;52.494;7.546;2023-04-01T08:19:01;98851.66;;;16.40;73.38
40788;BME280;26497;52.494;7.546;2023-04-01T08:21:35;98853.50;;;16.56;72.90
40788;BME280;26497;52.494;7.546;2023-04-01T08:24:11;98859.41;;;16.61;72.51
40788;BME280;26497;52.494;7.546;2023-04-01T08:26:44;98864.06;;;16.73;72.29
40788;BME280;26497;52.494;7.546;2023-04-01T08:29:17;98864.75;;;16.77;71.88
40788;BME280;26497;52.494;7.546;2023-04-01T08:31:51;98878.81;;;16.63;71.60
40788;BME280;26497;52.494;7.546;2023-04-01T08:34:25;98872.69;;;16.61;71.98
40788;BME280;26497;52.494;7.546;2023-04-01T08:36:53;98873.75;;;16.74;71.27
40788;BME280;26497;52.494;7.546;2023-04-01T08:39:30;98875.47;;;16.75;71.66
40788;BME280;26497;52.494;7.546;2023-04-01T08:42:28;98877.88;;;16.98;70.86
40788;BME280;26497;52.494;7.546;2023-04-01T08:45:21;98880.22;;;16.86;70.99
40788;BME280;26497;52.494;7.546;2023-04-01T08:48:08;98883.66;;;16.88;70.77
40788;BME280;26497;52.494;7.546;2023-04-01T08:54:22;98896.03;;;16.89;71.12
40788;BME280;26497;52.494;7.546;2023-04-01T08:56:59;98892.97;;;16.97;70.89
40788;BME280;26497;52.494;7.546;2023-04-01T08:59:50;98898.28;;;16.97;70.73
40788;BME280;26497;52.494;7.546;2023-04-01T09:02:49;98905.03;;;17.20;70.22
40788;BME280;26497;52.494;7.546;2023-04-01T09:05:36;98906.03;;;17.18;70.06
40788;BME280;26497;52.494;7.546;2023-04-01T09:08:25;98909.75;;;17.31;70.03
40788;BME280;26497;52.494;7.546;2023-04-01T09:11:06;98917.38;;;17.37;69.28
40788;BME280;26497;52.494;7.546;2023-04-01T09:17:16;98924.97;;;17.13;69.78
40788;BME280;26497;52.494;7.546;2023-04-01T09:20:14;98924.69;;;17.34;69.38
40788;BME280;26497;52.494;7.546;2023-04-01T09:22:58;98926.59;;;17.48;69.04
40788;BME280;26497;52.494;7.546;2023-04-01T09:26:01;98929.66;;;17.56;68.54
40788;BME280;26497;52.494;7.546;2023-04-01T09:28:39;98932.50;;;17.53;68.51
40788;BME280;26497;52.494;7.546;2023-04-01T09:31:38;98938.00;;;17.50;68.69
40788;BME280;26497;52.494;7.546;2023-04-01T09:34:30;98936.63;;;17.75;68.63
40788;BME280;26497;52.494;7.546;2023-04-01T09:37:19;98946.88;;;17.97;68.21
40788;BME280;26497;52.494;7.546;2023-04-01T09:40:15;98949.28;;;18.02;67.99
40788;BME280;26497;52.494;7.546;2023-04-01T09:43:06;98956.00;;;18.09;67.77
40788;BME280;26497;52.494;7.546;2023-04-01T09:45:55;98954.41;;;18.21;67.71
40788;BME280;26497;52.494;7.546;2023-04-01T09:49:09;98959.50;;;18.40;67.52
40788;BME280;26497;52.494;7.546;2023-04-01T09:51:55;98972.38;;;18.33;67.18
40788;BME280;26497;52.494;7.546;2023-04-01T09:54:47;98965.16;;;18.19;66.86
40788;BME280;26497;52.494;7.546;2023-04-01T09:58:10;98967.13;;;18.32;66.25
40788;BME280;26497;52.494;7.546;2023-04-01T10:01:36;98972.19;;;18.36;66.30
40788;BME280;26497;52.494;7.546;2023-04-01T10:04:47;98979.50;;;18.33;66.37
40788;BME280;26497;52.494;7.546;2023-04-01T10:11:02;98976.69;;;18.50;66.35
40788;BME280;26497;52.494;7.546;2023-04-01T10:13:59;98979.47;;;18.49;66.25
40788;BME280;26497;52.494;7.546;2023-04-01T10:17:03;98987.09;;;18.55;65.74
40788;BME280;26497;52.494;7.546;2023-04-01T10:20:00;98990.13;;;18.49;65.61
40788;BME280;26497;52.494;7.546;2023-04-01T10:22:56;98990.69;;;18.39;65.83
40788;BME280;26497;52.494;7.546;2023-04-01T10:26:04;98991.81;;;18.35;65.27
40788;BME280;26497;52.494;7.546;2023-04-01T10:29:28;98993.19;;;18.26;65.61
40788;BME280;26497;52.494;7.546;2023-04-01T10:32:50;98998.75;;;18.38;65.62
40788;BME280;26497;52.494;7.546;2023-04-01T10:36:19;98992.06;;;18.31;65.69
40788;BME280;26497;52.494;7.546;2023-04-01T10:43:02;98994.22;;;18.09;65.95
40788;BME280;26497;52.494;7.546;2023-04-01T10:53:19;99013.78;;;17.92;66.31
40788;BME280;26497;52.494;7.546;2023-04-01T10:56:31;99017.22;;;17.94;66.32
40788;BME280;26497;52.494;7.546;2023-04-01T10:59:23;99022.25;;;18.01;66.69
40788;BME280;26497;52.494;7.546;2023-04-01T11:06:27;99022.19;;;18.33;66.50
40788;BME280;26497;52.494;7.546;2023-04-01T11:19:27;99042.69;;;18.32;65.85
40788;BME280;26497;52.494;7.546;2023-04-01T11:22:33;99041.22;;;18.26;65.80
40788;BME280;26497;52.494;7.546;2023-04-01T11:25:35;99046.97;;;18.35;64.74
40788;BME280;26497;52.494;7.546;2023-04-01T11:28:36;99054.03;;;18.36;64.33
40788;BME280;26497;52.494;7.546;2023-04-01T11:31:35;99046.16;;;18.18;64.97
40788;BME280;26497;52.494;7.546;2023-04-01T11:34:19;99056.28;;;18.27;65.04
40788;BME280;26497;52.494;7.546;2023-04-01T11:37:02;99063.41;;;18.43;64.78
40788;BME280;26497;52.494;7.546;2023-04-01T11:39:38;99072.69;;;18.52;63.53
40788;BME280;26497;52.494;7.546;2023-04-01T11:42:22;99063.94;;;18.34;63.51
40788;BME280;26497;52.494;7.546;2023-04-01T11:45:00;99065.06;;;18.46;64.33
40788;BME280;26497;52.494;7.546;2023-04-01T11:48:03;99067.69;;;19.07;65.42
40788;BME280;26497;52.494;7.546;2023-04-01T11:50:46;99072.84;;;19.53;62.25
40788;BME280;26497;52.494;7.546;2023-04-01T11:53:26;99074.94;;;19.34;61.02
40788;BME280;26497;52.494;7.546;2023-04-01T11:56:07;99082.78;;;19.51;61.87
40788;BME280;26497;52.494;7.546;2023-04-01T11:58:55;99089.53;;;19.57;60.75
40788;BME280;26497;52.494;7.546;2023-04-01T12:01:33;99091.00;;;20.19;61.56
40788;BME280;26497;52.494;7.546;2023-04-01T12:08:09;99095.06;;;19.83;57.36
40788;BME280;26497;52.494;7.546;2023-04-01T12:10:44;99102.34;;;19.52;59.79
40788;BME280;26497;52.494;7.546;2023-04-01T12:13:35;99102.22;;;19.97;61.17
40788;BME280;26497;52.494;7.546;2023-04-01T12:16:24;99100.88;;;20.72;59.68
40788;BME280;26497;52.494;7.546;2023-04-01T12:18:57;99105.91;;;21.82;57.44
40788;BME280;26497;52.494;7.546;2023-04-01T12:21:32;99112.81;;;22.83;53.89
40788;BME280;26497;52.494;7.546;2023-04-01T12:24:32;99109.28;;;22.94;47.57
40788;BME280;26497;52.494;7.546;2023-04-01T12:27:37;99116.16;;;22.62;47.96
40788;BME280;26497;52.494;7.546;2023-04-01T12:30:49;99122.03;;;22.43;48.64
40788;BME280;26497;52.494;7.546;2023-04-01T12:33:45;99124.16;;;22.51;49.80
40788;BME280;26497;52.494;7.546;2023-04-01T12:36:35;99124.94;;;22.64;49.71
40788;BME280;26497;52.494;7.546;2023-04-01T12:39:44;99133.16;;;22.74;47.68
40788;BME280;26497;52.494;7.546;2023-04-01T12:45:36;99143.25;;;21.33;50.95
40788;BME280;26497;52.494;7.546;2023-04-01T12:48:46;99152.34;;;20.77;52.40
40788;BME280;26497;52.494;7.546;2023-04-01T12:51:54;99154.53;;;20.15;53.83
40788;BME280;26497;52.494;7.546;2023-04-01T12:55:17;99157.06;;;19.89;55.06
40788;BME280;26497;52.494;7.546;2023-04-01T12:58:17;99170.41;;;19.32;56.13
40788;BME280;26497;52.494;7.546;2023-04-01T13:01:31;99178.13;;;18.75;58.06
40788;BME280;26497;52.494;7.546;2023-04-01T13:04:56;99175.84;;;18.21;60.83
40788;BME280;26497;52.494;7.546;2023-04-01T13:08:15;99182.34;;;17.99;61.78
40788;BME280;26497;52.494;7.546;2023-04-01T13:10:59;99190.41;;;17.97;62.94
40788;BME280;26497;52.494;7.546;2023-04-01T13:17:11;99200.00;;;18.02;63.46
40788;BME280;26497;52.494;7.546;2023-04-01T13:19:48;99208.41;;;17.94;63.71
40788;BME280;26497;52.494;7.546;2023-04-01T13:22:23;99208.31;;;17.95;63.80
40788;BME280;26497;52.494;7.546;2023-04-01T13:25:00;99212.69;;;17.96;63.88
40788;BME280;26497;52.494;7.546;2023-04-01T13:27:37;99218.78;;;17.82;64.08
40788;BME280;26497;52.494;7.546;2023-04-01T13:30:24;99211.91;;;17.78;64.34
40788;BME280;26497;52.494;7.546;2023-04-01T13:32:59;99223.47;;;17.95;64.28
40788;BME280;26497;52.494;7.546;2023-04-01T13:35:37;99223.38;;;17.96;64.50
40788;BME280;26497;52.494;7.546;2023-04-01T13:38:48;99229.00;;;18.08;64.26
40788;BME280;26497;52.494;7.546;2023-04-01T13:41:29;99246.41;;;17.97;64.54
40788;BME280;26497;52.494;7.546;2023-04-01T13:44:02;99240.50;;;18.26;65.12
40788;BME280;26497;52.494;7.546;2023-04-01T13:47:09;99234.16;;;18.45;65.17
40788;BME280;26497;52.494;7.546;2023-04-01T13:53:15;99247.72;;;18.24;63.83
40788;BME280;26497;52.494;7.546;2023-04-01T13:55:53;99252.19;;;18.23;63.92
40788;BME280;26497;52.494;7.546;2023-04-01T13:58:53;99244.84;;;18.11;64.51
40788;BME280;26497;52.494;7.546;2023-04-01T14:01:32;99250.97;;;18.13;64.68
40788;BME280;26497;52.494;7.546;2023-04-01T14:04:31;99260.78;;;18.12;63.70
40788;BME280;26497;52.494;7.546;2023-04-01T14:07:28;99263.63;;;18.09;64.53
40788;BME280;26497;52.494;7.546;2023-04-01T14:10:19;99261.63;;;18.13;65.01
40788;BME280;26497;52.494;7.546;2023-04-01T14:12:56;99280.28;;;17.79;64.70
40788;BME280;26497;52.494;7.546;2023-04-01T14:15:51;99288.47;;;17.04;65.15
40788;BME280;26497;52.494;7.546;2023-04-01T14:19:08;99301.03;;;16.64;66.33
40788;BME280;26497;52.494;7.546;2023-04-01T14:21:43;99303.19;;;16.36;67.65
40788;BME280;26497;52.494;7.546;2023-04-01T14:24:28;99313.53;;;16.24;67.71
40788;BME280;26497;52.494;7.546;2023-04-01T14:27:24;99313.69;;;16.00;68.12
40788;BME280;26497;52.494;7.546;2023-04-01T14:30:17;99325.53;;;15.92;68.75
40788;BME280;26497;52.494;7.546;2023-04-01T14:32:54;99323.25;;;15.83;68.64
40788;BME280;26497;52.494;7.546;2023-04-01T14:35:37;99330.66;;;15.54;70.01
40788;BME280;26497;52.494;7.546;2023-04-01T14:38:34;99346.66;;;15.32;70.56
40788;BME280;26497;52.494;7.546;2023-04-01T14:41:20;99352.38;;;14.99;71.59
40788;BME280;26497;52.494;7.546;2023-04-01T14:44:16;99349.34;;;15.30;71.18
40788;BME280;26497;52.494;7.546;2023-04-01T14:47:09;99358.63;;;15.42;70.46
40788;BME280;26497;52.494;7.546;2023-04-01T14:49:42;99363.19;;;15.39;70.18
40788;BME280;26497;52.494;7.546;2023-04-01T14:52:17;99370.59;;;15.08;71.10
40788;BME280;26497;52.494;7.546;2023-04-01T14:54:50;99366.25;;;14.83;71.97
40788;BME280;26497;52.494;7.546;2023-04-01T14:57:24;99371.75;;;14.79;71.99
40788;BME280;26497;52.494;7.546;2023-04-01T14:59:59;99374.28;;;14.82;72.05